sensor_id;sensor_type;location;lat;lon;timestamp;pressure;altitude;pressure_sealevel;temperature;humidity
16431;BME280;8325;49.284;7.238;2023-04-29T04:01:45;98594.47;;;9.82;100.00
16431;BME280;8325;49.284;7.238;2023-04-29T04:05:57;98598.72;;;9.83;100.00
16431;BME280;8325;49.284;7.238;2023-04-29T04:10:09;98601.19;;;9.60;100.00
16431;BME280;8325;49.284;7.238;2023-04-29T04:14:20;98612.13;;;9.47;100.00
16431;BME280;8325;49.284;7.238;2023-04-29T04:18:33;98611.66;;;9.43;100.00
16431;BME280;8325;49.284;7.238;2023-04-29T04:22:45;98619.97;;;9.55;100.00
16431;BME280;8325;49.284;7.238;2023-04-29T04:27:02;98637.56;;;9.61;100.00
16431;BME280;8325;49.284;7.238;2023-04-29T04:31:19;98638.38;;;9.70;100.00
16431;BME280;8325;49.284;7.238;2023-04-29T04:35:31;98644.88;;;9.74;100.00
16431;BME280;8325;49.284;7.238;2023-04-29T04:39:43;98651.84;;;9.82;100.00
16431;BME280;8325;49.284;7.238;2023-04-29T04:43:58;98652.69;;;9.82;100.00
16431;BME280;8325;49.284;7.238;2023-04-29T04:48:18;98655.91;;;9.84;100.00
16431;BME280;8325;49.284;7.238;2023-04-29T04:52:33;98650.88;;;9.83;100.00
16431;BME280;8325;49.284;7.238;2023-04-29T04:56:58;98654.63;;;9.88;100.00
16431;BME280;8325;49.284;7.238;2023-04-29T05:01:09;98658.53;;;9.93;100.00
16431;BME280;8325;49.284;7.238;2023-04-29T05:05:21;98668.44;;;10.05;100.00
16431;BME280;8325;49.284;7.238;2023-04-29T05:09:32;98670.34;;;10.20;100.00
16431;BME280;8325;49.284;7.238;2023-04-29T05:13:44;98677.66;;;10.24;100.00
16431;BME280;8325;49.284;7.238;2023-04-29T05:17:56;98676.53;;;10.35;100.00
16431;BME280;8325;49.284;7.238;2023-04-29T05:22:08;98680.91;;;10.43;100.00
16431;BME280;8325;49.284;7.238;2023-04-29T05:26:21;98684.53;;;10.33;100.00
16431;BME280;8325;49.284;7.238;2023-04-29T05:30:34;98689.66;;;10.50;100.00
16431;BME280;8325;49.284;7.238;2023-04-29T05:34:45;98687.59;;;10.76;100.00
16431;BME280;8325;49.284;7.238;2023-04-29T05:38:57;98681.88;;;11.04;100.00
16431;BME280;8325;49.284;7.238;2023-04-29T05:43:09;98685.75;;;11.08;100.00
16431;BME280;8325;49.284;7.238;2023-04-29T05:47:21;98688.22;;;11.10;100.00
16431;BME280;8325;49.284;7.238;2023-04-29T05:51:33;98698.44;;;11.19;100.00
16431;BME280;8325;49.284;7.238;2023-04-29T05:55:44;98703.31;;;10.99;100.00
16431;BME280;8325;49.284;7.238;2023-04-29T05:59:58;98700.34;;;11.25;100.00
16431;BME280;8325;49.284;7.238;2023-04-29T06:04:10;98701.09;;;11.57;100.00
16431;BME280;8325;49.284;7.238;2023-04-29T06:08:43;98704.13;;;11.84;100.00
16431;BME280;8325;49.284;7.238;2023-04-29T06:13:01;98704.50;;;11.81;100.00
16431;BME280;8325;49.284;7.238;2023-04-29T06:17:12;98719.19;;;11.82;100.00
16431;BME280;8325;49.284;7.238;2023-04-29T06:21:24;98713.16;;;11.81;100.00
16431;BME280;8325;49.284;7.238;2023-04-29T06:25:38;98726.13;;;11.74;100.00
16431;BME280;8325;49.284;7.238;2023-04-29T06:29:51;98727.38;;;11.87;99.77
16431;BME280;8325;49.284;7.238;2023-04-29T06:34:03;98724.41;;;12.05;98.12
16431;BME280;8325;49.284;7.238;2023-04-29T06:38:16;98727.13;;;12.11;100.00
16431;BME280;8325;49.284;7.238;2023-04-29T06:42:57;98731.09;;;12.22;99.55
16431;BME280;8325;49.284;7.238;2023-04-29T06:47:32;98744.94;;;12.31;98.12
16431;BME280;8325;49.284;7.238;2023-04-29T06:51:57;98742.50;;;12.29;98.12
16431;BME280;8325;49.284;7.238;2023-04-29T06:56:10;98746.56;;;12.32;99.08
16431;BME280;8325;49.284;7.238;2023-04-29T07:00:22;98747.03;;;12.35;96.48
16431;BME280;8325;49.284;7.238;2023-04-29T07:04:33;98749.09;;;12.40;96.68
16431;BME280;8325;49.284;7.238;2023-04-29T07:08:45;98747.03;;;12.35;96.37
16431;BME280;8325;49.284;7.238;2023-04-29T07:12:58;98759.03;;;12.30;94.27
16431;BME280;8325;49.284;7.238;2023-04-29T07:17:10;98769.13;;;12.33;95.98
16431;BME280;8325;49.284;7.238;2023-04-29T07:21:25;98776.09;;;12.26;94.01
16431;BME280;8325;49.284;7.238;2023-04-29T07:25:37;98776.25;;;12.24;95.06
16431;BME280;8325;49.284;7.238;2023-04-29T07:29:49;98783.69;;;12.35;93.95
16431;BME280;8325;49.284;7.238;2023-04-29T07:34:01;98785.13;;;12.38;95.72
16431;BME280;8325;49.284;7.238;2023-04-29T07:38:12;98789.38;;;12.39;93.93
16431;BME280;8325;49.284;7.238;2023-04-29T07:42:24;98791.72;;;12.34;93.94
16431;BME280;8325;49.284;7.238;2023-04-29T07:46:36;98799.84;;;12.39;90.91
16431;BME280;8325;49.284;7.238;2023-04-29T07:50:48;98809.06;;;12.35;92.15
16431;BME280;8325;49.284;7.238;2023-04-29T07:55:01;98811.59;;;12.43;92.81
16431;BME280;8325;49.284;7.238;2023-04-29T07:59:13;98806.00;;;12.46;92.75
16431;BME280;8325;49.284;7.238;2023-04-29T08:03:25;98811.88;;;12.48;89.74
16431;BME280;8325;49.284;7.238;2023-04-29T08:07:37;98812.78;;;12.55;91.41
16431;BME280;8325;49.284;7.238;2023-04-29T08:11:49;98818.81;;;12.56;91.85
16431;BME280;8325;49.284;7.238;2023-04-29T08:16:01;98819.91;;;12.61;91.87
16431;BME280;8325;49.284;7.238;2023-04-29T08:20:12;98832.38;;;12.74;91.19
16431;BME280;8325;49.284;7.238;2023-04-29T08:24:25;98827.25;;;12.66;90.17
16431;BME280;8325;49.284;7.238;2023-04-29T08:28:37;98832.03;;;12.48;88.95
16431;BME280;8325;49.284;7.238;2023-04-29T08:32:48;98836.72;;;12.52;90.05
16431;BME280;8325;49.284;7.238;2023-04-29T08:37:00;98832.06;;;12.62;90.10
16431;BME280;8325;49.284;7.238;2023-04-29T08:41:12;98835.13;;;12.66;90.07
16431;BME280;8325;49.284;7.238;2023-04-29T08:45:26;98837.38;;;12.69;90.13
16431;BME280;8325;49.284;7.238;2023-04-29T08:49:39;98843.34;;;12.78;89.79
16431;BME280;8325;49.284;7.238;2023-04-29T08:53:51;98846.06;;;12.84;89.19
16431;BME280;8325;49.284;7.238;2023-04-29T08:58:03;98847.69;;;12.85;89.51
16431;BME280;8325;49.284;7.238;2023-04-29T09:02:15;98855.47;;;12.94;90.01
16431;BME280;8325;49.284;7.238;2023-04-29T09:06:29;98861.34;;;12.81;86.20
16431;BME280;8325;49.284;7.238;2023-04-29T09:10:42;98862.41;;;12.72;86.71
16431;BME280;8325;49.284;7.238;2023-04-29T09:14:55;98861.84;;;12.61;86.52
16431;BME280;8325;49.284;7.238;2023-04-29T09:19:09;98869.63;;;12.55;87.45
16431;BME280;8325;49.284;7.238;2023-04-29T09:23:36;98875.31;;;12.58;87.63
16431;BME280;8325;49.284;7.238;2023-04-29T09:27:47;98879.56;;;12.59;87.00
16431;BME280;8325;49.284;7.238;2023-04-29T09:31:59;98874.88;;;12.70;87.95
16431;BME280;8325;49.284;7.238;2023-04-29T09:36:11;98885.09;;;12.79;85.62
16431;BME280;8325;49.284;7.238;2023-04-29T09:40:33;98881.66;;;12.64;84.72
16431;BME280;8325;49.284;7.238;2023-04-29T09:45:00;98879.22;;;12.62;84.95
16431;BME280;8325;49.284;7.238;2023-04-29T09:49:26;98886.34;;;12.54;87.08
16431;BME280;8325;49.284;7.238;2023-04-29T09:53:38;98884.16;;;12.57;85.53
16431;BME280;8325;49.284;7.238;2023-04-29T09:57:50;98879.72;;;12.43;86.01
16431;BME280;8325;49.284;7.238;2023-04-29T10:02:12;98885.53;;;12.53;87.54
16431;BME280;8325;49.284;7.238;2023-04-29T10:06:26;98889.13;;;12.52;87.09
16431;BME280;8325;49.284;7.238;2023-04-29T10:10:39;98893.81;;;12.42;86.19
16431;BME280;8325;49.284;7.238;2023-04-29T10:19:20;98888.22;;;12.45;87.34
16431;BME280;8325;49.284;7.238;2023-04-29T10:23:35;98898.72;;;12.60;87.16
16431;BME280;8325;49.284;7.238;2023-04-29T10:27:48;98890.97;;;12.66;88.07
16431;BME280;8325;49.284;7.238;2023-04-29T10:32:03;98895.78;;;12.78;87.73
16431;BME280;8325;49.284;7.238;2023-04-29T10:36:18;98889.88;;;12.76;86.85
16431;BME280;8325;49.284;7.238;2023-04-29T10:40:40;98893.84;;;12.86;87.76
16431;BME280;8325;49.284;7.238;2023-04-29T10:45:18;98895.13;;;12.76;86.23
16431;BME280;8325;49.284;7.238;2023-04-29T10:49:33;98890.78;;;12.83;87.85
16431;BME280;8325;49.284;7.238;2023-04-29T10:53:58;98886.84;;;12.87;87.01
16431;BME280;8325;49.284;7.238;2023-04-29T11:02:46;98890.63;;;12.84;86.71
16431;BME280;8325;49.284;7.238;2023-04-29T11:06:59;98881.09;;;12.83;85.25
16431;BME280;8325;49.284;7.238;2023-04-29T11:11:14;98887.81;;;12.86;86.24
16431;BME280;8325;49.284;7.238;2023-04-29T11:15:26;98885.91;;;12.95;86.50
16431;BME280;8325;49.284;7.238;2023-04-29T11:19:42;98887.63;;;12.87;86.05
16431;BME280;8325;49.284;7.238;2023-04-29T11:23:55;98890.44;;;12.86;86.00
16431;BME280;8325;49.284;7.238;2023-04-29T11:28:08;98891.59;;;12.83;85.14
16431;BME280;8325;49.284;7.238;2023-04-29T11:32:21;98892.78;;;12.81;82.91
16431;BME280;8325;49.284;7.238;2023-04-29T11:36:34;98899.00;;;12.80;84.10
16431;BME280;8325;49.284;7.238;2023-04-29T11:40:49;98902.00;;;12.77;83.66
16431;BME280;8325;49.284;7.238;2023-04-29T11:45:01;98907.94;;;12.71;84.10
16431;BME280;8325;49.284;7.238;2023-04-29T11:49:13;98908.41;;;12.59;83.85
16431;BME280;8325;49.284;7.238;2023-04-29T11:53:25;98910.03;;;12.75;84.86
16431;BME280;8325;49.284;7.238;2023-04-29T11:57:40;98906.50;;;12.68;83.07
16431;BME280;8325;49.284;7.238;2023-04-29T12:01:52;98914.56;;;12.81;84.08
16431;BME280;8325;49.284;7.238;2023-04-29T12:06:03;98912.78;;;12.97;83.26
16431;BME280;8325;49.284;7.238;2023-04-29T12:10:18;98912.41;;;13.00;84.36
16431;BME280;8325;49.284;7.238;2023-04-29T12:14:31;98897.22;;;13.10;82.90
16431;BME280;8325;49.284;7.238;2023-04-29T12:18:42;98910.06;;;13.20;82.42
16431;BME280;8325;49.284;7.238;2023-04-29T12:22:54;98914.13;;;13.07;79.78
16431;BME280;8325;49.284;7.238;2023-04-29T12:27:09;98922.63;;;13.09;80.33
16431;BME280;8325;49.284;7.238;2023-04-29T12:31:21;98909.78;;;13.14;80.46
16431;BME280;8325;49.284;7.238;2023-04-29T12:35:35;98909.69;;;13.08;78.45
16431;BME280;8325;49.284;7.238;2023-04-29T12:39:48;98907.25;;;13.21;78.77
16431;BME280;8325;49.284;7.238;2023-04-29T12:44:00;98918.31;;;13.46;78.95
16431;BME280;8325;49.284;7.238;2023-04-29T12:48:12;98916.47;;;13.62;77.88
16431;BME280;8325;49.284;7.238;2023-04-29T12:52:39;98919.28;;;13.45;76.63
16431;BME280;8325;49.284;7.238;2023-04-29T12:56:50;98920.91;;;13.46;77.41
16431;BME280;8325;49.284;7.238;2023-04-29T13:01:02;98923.00;;;13.36;78.27
16431;BME280;8325;49.284;7.238;2023-04-29T13:05:14;98919.16;;;13.24;78.16
16431;BME280;8325;49.284;7.238;2023-04-29T13:09:26;98928.59;;;13.33;79.45
16431;BME280;8325;49.284;7.238;2023-04-29T13:13:37;98932.66;;;13.21;79.21
16431;BME280;8325;49.284;7.238;2023-04-29T13:17:49;98932.84;;;13.04;78.32
16431;BME280;8325;49.284;7.238;2023-04-29T13:22:02;98931.13;;;13.11;78.67
16431;BME280;8325;49.284;7.238;2023-04-29T13:26:13;98937.81;;;12.99;78.71
16431;BME280;8325;49.284;7.238;2023-04-29T13:30:25;98940.25;;;13.01;79.47
16431;BME280;8325;49.284;7.238;2023-04-29T13:34:37;98936.19;;;12.98;79.23
16431;BME280;8325;49.284;7.238;2023-04-29T13:38:48;98930.69;;;12.93;79.46
16431;BME280;8325;49.284;7.238;2023-04-29T13:43:06;98935.56;;;12.96;80.22
16431;BME280;8325;49.284;7.238;2023-04-29T13:47:20;98933.56;;;12.98;79.46
16431;BME280;8325;49.284;7.238;2023-04-29T13:51:39;98932.22;;;13.02;80.23
16431;BME280;8325;49.284;7.238;2023-04-29T13:55:53;98934.75;;;13.10;79.60
16431;BME280;8325;49.284;7.238;2023-04-29T14:00:08;98940.34;;;13.07;78.79
16431;BME280;8325;49.284;7.238;2023-04-29T14:04:40;98945.84;;;12.83;80.34
16431;BME280;8325;49.284;7.238;2023-04-29T14:08:52;98949.41;;;12.90;81.17
16431;BME280;8325;49.284;7.238;2023-04-29T14:13:04;98948.19;;;12.78;80.63
16431;BME280;8325;49.284;7.238;2023-04-29T14:17:15;98945.69;;;12.84;80.92
16431;BME280;8325;49.284;7.238;2023-04-29T14:21:27;98950.81;;;12.78;81.37
16431;BME280;8325;49.284;7.238;2023-04-29T14:25:39;98957.78;;;12.85;81.17
16431;BME280;8325;49.284;7.238;2023-04-29T14:29:50;98958.84;;;12.76;80.75
16431;BME280;8325;49.284;7.238;2023-04-29T14:34:02;98958.03;;;12.76;81.33
16431;BME280;8325;49.284;7.238;2023-04-29T14:38:13;98967.31;;;12.63;81.86
16431;BME280;8325;49.284;7.238;2023-04-29T14:42:25;98972.84;;;12.46;85.16
16431;BME280;8325;49.284;7.238;2023-04-29T14:46:37;98975.00;;;12.42;86.10
16431;BME280;8325;49.284;7.238;2023-04-29T14:50:49;98975.75;;;12.28;88.63
16431;BME280;8325;49.284;7.238;2023-04-29T14:55:01;98973.78;;;12.30;88.87
16431;BME280;8325;49.284;7.238;2023-04-29T14:59:12;98988.59;;;12.23;88.22
16431;BME280;8325;49.284;7.238;2023-04-29T15:03:24;98988.06;;;11.96;89.53
16431;BME280;8325;49.284;7.238;2023-04-29T15:07:36;98988.03;;;12.04;90.09
16431;BME280;8325;49.284;7.238;2023-04-29T15:11:47;99001.97;;;11.96;90.97
16431;BME280;8325;49.284;7.238;2023-04-29T15:15:59;98996.94;;;11.95;91.80
16431;BME280;8325;49.284;7.238;2023-04-29T15:20:11;98989.69;;;11.97;91.88
16431;BME280;8325;49.284;7.238;2023-04-29T15:24:22;98999.13;;;12.06;90.20
16431;BME280;8325;49.284;7.238;2023-04-29T15:28:34;98998.19;;;11.99;90.58
16431;BME280;8325;49.284;7.238;2023-04-29T15:32:45;98997.84;;;12.02;90.41
16431;BME280;8325;49.284;7.238;2023-04-29T15:36:57;98999.19;;;11.98;90.37
16431;BME280;8325;49.284;7.238;2023-04-29T15:41:10;99002.75;;;12.05;90.91
16431;BME280;8325;49.284;7.238;2023-04-29T15:45:21;99000.44;;;12.10;89.87
16431;BME280;8325;49.284;7.238;2023-04-29T15:49:33;99008.41;;;12.17;88.83
16431;BME280;8325;49.284;7.238;2023-04-29T15:53:44;99010.56;;;12.13;88.99
16431;BME280;8325;49.284;7.238;2023-04-29T15:57:56;99003.59;;;12.29;89.21
16431;BME280;8325;49.284;7.238;2023-04-29T16:02:07;98996.56;;;12.29;88.12
16431;BME280;8325;49.284;7.238;2023-04-29T16:06:21;99007.19;;;12.28;88.56
16431;BME280;8325;49.284;7.238;2023-04-29T16:10:32;99001.81;;;12.29;89.06
16431;BME280;8325;49.284;7.238;2023-04-29T16:14:44;99008.41;;;12.40;86.55
16431;BME280;8325;49.284;7.238;2023-04-29T16:18:55;99000.09;;;12.36;85.87
16431;BME280;8325;49.284;7.238;2023-04-29T16:23:07;99007.47;;;12.41;83.85
16431;BME280;8325;49.284;7.238;2023-04-29T16:27:19;99009.06;;;12.42;84.89
16431;BME280;8325;49.284;7.238;2023-04-29T16:31:30;98998.25;;;12.45;85.04
16431;BME280;8325;49.284;7.238;2023-04-29T16:35:42;98998.91;;;12.47;84.72
16431;BME280;8325;49.284;7.238;2023-04-29T16:39:53;98996.19;;;12.55;84.06
16431;BME280;8325;49.284;7.238;2023-04-29T16:44:05;98985.56;;;12.57;82.56
16431;BME280;8325;49.284;7.238;2023-04-29T16:48:17;98984.41;;;12.59;82.08
16431;BME280;8325;49.284;7.238;2023-04-29T16:52:29;98994.53;;;12.62;82.13
16431;BME280;8325;49.284;7.238;2023-04-29T16:56:40;98988.22;;;12.72;81.94
16431;BME280;8325;49.284;7.238;2023-04-29T17:00:52;98986.88;;;12.76;81.25
16431;BME280;8325;49.284;7.238;2023-04-29T17:05:05;98998.50;;;12.96;77.96
16431;BME280;8325;49.284;7.238;2023-04-29T17:09:17;98988.63;;;12.98;78.14
16431;BME280;8325;49.284;7.238;2023-04-29T17:13:29;98990.88;;;13.01;75.86
16431;BME280;8325;49.284;7.238;2023-04-29T17:17:41;98989.97;;;12.94;75.15
16431;BME280;8325;49.284;7.238;2023-04-29T17:21:52;98999.22;;;12.90;73.76
16431;BME280;8325;49.284;7.238;2023-04-29T17:26:04;98997.66;;;12.96;74.14
16431;BME280;8325;49.284;7.238;2023-04-29T17:30:16;98992.25;;;12.97;74.01
16431;BME280;8325;49.284;7.238;2023-04-29T17:34:27;98988.25;;;13.01;75.38
16431;BME280;8325;49.284;7.238;2023-04-29T17:38:41;98985.38;;;12.96;76.01
16431;BME280;8325;49.284;7.238;2023-04-29T17:42:52;98995.47;;;12.84;76.21
16431;BME280;8325;49.284;7.238;2023-04-29T17:47:04;98997.16;;;12.77;77.15
16431;BME280;8325;49.284;7.238;2023-04-29T17:51:16;99002.94;;;12.73;77.29
16431;BME280;8325;49.284;7.238;2023-04-29T17:55:27;98999.41;;;12.65;78.07
16431;BME280;8325;49.284;7.238;2023-04-29T17:59:39;99003.66;;;12.66;79.81
16431;BME280;8325;49.284;7.238;2023-04-29T18:03:51;99007.63;;;12.62;79.94
16431;BME280;8325;49.284;7.238;2023-04-29T18:08:02;99002.09;;;12.57;81.22
16431;BME280;8325;49.284;7.238;2023-04-29T18:12:14;99008.72;;;12.45;80.96
16431;BME280;8325;49.284;7.238;2023-04-29T18:16:26;99016.22;;;12.48;81.13
16431;BME280;8325;49.284;7.238;2023-04-29T18:20:41;99014.78;;;12.46;81.05
16431;BME280;8325;49.284;7.238;2023-04-29T18:24:53;99020.13;;;12.29;81.98
16431;BME280;8325;49.284;7.238;2023-04-29T18:29:04;99025.38;;;12.29;82.19
16431;BME280;8325;49.284;7.238;2023-04-29T18:33:16;99027.25;;;12.12;81.02
16431;BME280;8325;49.284;7.238;2023-04-29T18:37:28;99026.63;;;12.10;82.15
16431;BME280;8325;49.284;7.238;2023-04-29T18:41:39;99031.25;;;12.00;81.54
16431;BME280;8325;49.284;7.238;2023-04-29T18:45:51;99029.31;;;11.94;81.59
16431;BME280;8325;49.284;7.238;2023-04-29T18:50:03;99036.19;;;11.95;82.73
16431;BME280;8325;49.284;7.238;2023-04-29T18:54:16;99036.22;;;11.87;82.52
16431;BME280;8325;49.284;7.238;2023-04-29T18:58:28;99040.47;;;11.88;82.50
16431;BME280;8325;49.284;7.238;2023-04-29T19:02:40;99044.53;;;11.82;83.24
16431;BME280;8325;49.284;7.238;2023-04-29T19:06:52;99048.19;;;11.73;84.14
16431;BME280;8325;49.284;7.238;2023-04-29T19:11:03;99047.19;;;11.74;84.71
16431;BME280;8325;49.284;7.238;2023-04-29T19:15:15;99056.19;;;11.71;84.82
16431;BME280;8325;49.284;7.238;2023-04-29T19:19:27;99054.91;;;11.67;85.08
16431;BME280;8325;49.284;7.238;2023-04-29T19:23:40;99061.44;;;11.63;85.53
16431;BME280;8325;49.284;7.238;2023-04-29T19:27:52;99069.00;;;11.58;86.74
16431;BME280;8325;49.284;7.238;2023-04-29T19:32:03;99065.72;;;11.64;86.79
16431;BME280;8325;49.284;7.238;2023-04-29T19:36:15;99072.56;;;11.65;86.89
16431;BME280;8325;49.284;7.238;2023-04-29T19:40:27;99076.81;;;11.66;87.96
16431;BME280;8325;49.284;7.238;2023-04-29T19:44:38;99081.41;;;11.64;88.58
16431;BME280;8325;49.284;7.238;2023-04-29T19:48:50;99080.78;;;11.54;88.49
16431;BME280;8325;49.284;7.238;2023-04-29T19:53:01;99076.19;;;11.56;88.54
16431;BME280;8325;49.284;7.238;2023-04-29T19:57:13;99082.25;;;11.57;88.77
16431;BME280;8325;49.284;7.238;2023-04-29T20:01:24;99083.72;;;11.51;89.21
16431;BME280;8325;49.284;7.238;2023-04-29T20:05:36;99082.63;;;11.37;89.84
16431;BME280;8325;49.284;7.238;2023-04-29T20:09:49;99086.38;;;11.43;89.61
16431;BME280;8325;49.284;7.238;2023-04-29T20:14:01;99084.09;;;11.40;90.26
16431;BME280;8325;49.284;7.238;2023-04-29T20:18:13;99091.94;;;11.32;91.22
16431;BME280;8325;49.284;7.238;2023-04-29T20:22:25;99096.16;;;11.33;91.69
16431;BME280;8325;49.284;7.238;2023-04-29T20:26:39;99086.56;;;11.25;92.13
16431;BME280;8325;49.284;7.238;2023-04-29T20:30:51;99092.44;;;11.27;92.24
16431;BME280;8325;49.284;7.238;2023-04-29T20:35:03;99093.44;;;11.18;92.36
16431;BME280;8325;49.284;7.238;2023-04-29T20:39:14;99099.28;;;11.20;92.50
16431;BME280;8325;49.284;7.238;2023-04-29T20:43:28;99100.75;;;11.14;93.31
16431;BME280;8325;49.284;7.238;2023-04-29T20:47:40;99102.41;;;11.07;93.78
16431;BME280;8325;49.284;7.238;2023-04-29T20:51:51;99108.13;;;11.02;93.96
16431;BME280;8325;49.284;7.238;2023-04-29T20:56:03;99114.81;;;11.05;94.63
16431;BME280;8325;49.284;7.238;2023-04-29T21:00:15;99110.56;;;10.96;94.98
16431;BME280;8325;49.284;7.238;2023-04-29T21:04:26;99117.28;;;10.90;95.27
16431;BME280;8325;49.284;7.238;2023-04-29T21:08:38;99122.00;;;10.95;96.24
16431;BME280;8325;49.284;7.238;2023-04-29T21:12:50;99123.81;;;11.02;95.36
16431;BME280;8325;49.284;7.238;2023-04-29T21:17:01;99119.22;;;11.04;96.00
16431;BME280;8325;49.284;7.238;2023-04-29T21:21:13;99131.16;;;10.99;95.94
16431;BME280;8325;49.284;7.238;2023-04-29T21:25:24;99122.19;;;10.93;97.13
16431;BME280;8325;49.284;7.238;2023-04-29T21:29:36;99121.97;;;10.87;97.46
